• Join FlightAware (Why Join?)
  • Login
  • US Flag 
08:48PM EDT


 

Airport Tracker/Info


-or-


 

Live Flight TrackerFlight Track Log ✈ XOJ550 ✈ 03-Jul-2013 ✈ KLAS - PHLI / LIH

Flight Track Log - Related Links

Times and Time Zones

All times are in EDT time to prevent confusion due to time zone crossing. See the XOJ550 flight status page for this flight to view local times or setup timezone preferences in your user account.

Time Position Orientation Groundspeed Altitude Reporting Facility
EDT Latitude Longitude Course Direction KTS MPH feet Rate Location/Type
12:52PM 36.0586 -115.1767 229° Southwest 171 197 3,000  Level Los Angeles Center
12:53PM 36.0058 -115.2133 209° Southwest 220 253 5,100 2,040 Climbing Los Angeles Center
12:54PM 35.9631 -115.2983 238° Southwest 294 338 7,200 2,220 Climbing Los Angeles Center
12:55PM 35.8778 -115.3114 187° South 305 351 9,800 1,860 Climbing Los Angeles Center
12:56PM 35.7858 -115.3081 178° South 316 364 11,100 1,260 Climbing Los Angeles Center
12:57PM 35.6792 -115.3039 178° South 364 419 12,500 1,500 Climbing Los Angeles Center
12:58PM 35.5810 -115.4154 229° Southwest  Level FlightAware Approximate
12:58PM 35.5983 -115.4014 224° Southwest 398 458 14,200  Level Los Angeles Center
12:59PM 35.5067 -115.5247 228° Southwest 405 466 16,400 1,980 Climbing Los Angeles Center
01:00PM 35.4358 -115.6197 228° Southwest 412 474 18,300 1,740 Climbing Los Angeles Center
01:01PM 35.3558 -115.7261 227° Southwest 420 483 20,000 1,560 Climbing Los Angeles Center
01:03PM 35.2728 -115.8364 227° Southwest 435 501 21,900 1,980 Climbing Los Angeles Center
01:04PM 35.1567 -115.9917 228° Southwest 440 506 24,600 2,100 Climbing Los Angeles Center
01:05PM 35.0717 -116.1025 227° Southwest 445 512 26,300 1,140 Climbing Los Angeles Center
01:06PM 34.9864 -116.2156 227° Southwest 451 519 27,000 600 Climbing Los Angeles Center
01:07PM 34.8947 -116.3356 227° Southwest 471 542 27,600 480 Climbing Los Angeles Center
01:08PM 34.8061 -116.4642 230° Southwest 490 564 28,100 720 Climbing Los Angeles Center
01:09PM 34.7811 -116.6272 259° West 493 567 29,100 1,320 Climbing Los Angeles Center
01:10PM 34.7625 -116.8239 263° West 487 560 30,900 1,380 Climbing Los Angeles Center
01:11PM 34.7456 -116.9839 263° West 478 550 32,000 960 Climbing Los Angeles Center
01:12PM 34.7289 -117.1464 263° West 481 554 33,000 960 Climbing Los Angeles Center
01:13PM 34.7108 -117.3125 263° West 491 565 34,000 960 Climbing Los Angeles Center
01:14PM 34.6933 -117.4794 263° West 493 567 35,100 1,020 Climbing Los Angeles Center
01:15PM 34.6744 -117.6483 262° West 506 582 36,200 1,020 Climbing Los Angeles Center
01:16PM 34.6558 -117.8158 262° West 500 575 37,300 1,020 Climbing Los Angeles Center
01:17PM 34.6400 -117.9778 263° West 494 568 38,400 960 Climbing Los Angeles Center
01:18PM 34.6267 -118.1500 265° West 475 547 39,300 900 Climbing Los Angeles Center
01:19PM 34.6153 -118.3125 265° West 480 552 40,300 720 Climbing Los Angeles Center
01:20PM 34.6036 -118.4989 266° West 469 540 40,900 420 Climbing Los Angeles Center
01:21PM 34.5919 -118.6553 265° West 472 543 41,200 240 Climbing Los Angeles Center
01:22PM 34.5603 -118.8069 256° West 469 540 41,500 240 Climbing Los Angeles Center
01:23PM 34.5181 -118.9572 251° West 472 543 41,800 480 Climbing Los Angeles Center
01:24PM 34.4789 -119.1050 252° West 467 537 42,500 540 Climbing Los Angeles Center
01:25PM 34.4311 -119.2775 251° West 455 524 43,000 240 Climbing Los Angeles Center
01:26PM 34.3933 -119.4192 252° West 448 516 43,000  Level Los Angeles Center
01:27PM 34.3547 -119.5631 252° West 451 519 43,000  Level Los Angeles Center
01:28PM 34.3153 -119.7050 251° West 448 516 43,000  Level Los Angeles Center
01:30PM 34.2764 -119.8494 252° West 453 521 43,000  Level Los Angeles Center
01:31PM 34.2289 -120.0214 252° West 452 520 43,000  Level Los Angeles Center
01:32PM 34.1881 -120.1661 251° West 459 528 43,000  Level Los Angeles Center
01:33PM 34.1475 -120.3106 251° West 459 528 43,000  Level Los Angeles Center
01:34PM 34.1025 -120.4689 251° West 456 525 43,000  Level Los Angeles Center
01:35PM 34.0597 -120.6158 251° West 458 527 43,000  Level Los Angeles Center
01:36PM 34.0181 -120.7608 251° West 458 527 43,000  Level Los Angeles Center
01:37PM 33.9778 -120.9036 251° West 450 518 43,000  Level Los Angeles Center
01:38PM 33.9367 -121.0469 251° West 451 519 43,000  Level Los Angeles Center
01:39PM 33.8961 -121.1908 251° West 454 522 43,000  Level Los Angeles Center
01:40PM 33.8536 -121.3317 250° West 448 516 43,000  Level Los Angeles Center
01:41PM 33.8033 -121.5033 251° West 452 520 43,000  Level Los Angeles Center
01:42PM 33.7533 -121.6761 251° West 455 524 43,000  Level Los Angeles Center
01:43PM 33.7117 -121.8203 251° West 458 527 43,000  Level Los Angeles Center
01:44PM 33.6678 -121.9647 250° West 462 532 43,000  Level Los Angeles Center
01:45PM 33.6242 -122.1086 250° West 460 529 43,000  Level Los Angeles Center
01:46PM 33.5906 -122.2236 251° West 457 526 43,000  Level Los Angeles Center
01:48PM 33.5314 -122.4239 251° West 454 522 43,000  Level Los Angeles Center
01:49PM 33.4803 -122.5925 250° West 450 518 43,000  Level Los Angeles Center
01:51PM 33.4229 -122.8675 256° West  Level FlightAware Approximate
01:58PM 33.2121 -123.8517 256° West  Level FlightAware Approximate
01:59PM 33.1813 -123.9919 255° West  Level FlightAware Approximate
02:00PM 33.1504 -124.1320 255° West  Level FlightAware Approximate
02:01PM 33.1194 -124.2720 255° West  Level FlightAware Approximate
02:02PM 33.0881 -124.4119 255° West  Level FlightAware Approximate
02:03PM 33.0594 -124.5494 255° West  Level FlightAware Approximate
02:04PM 33.0280 -124.6892 255° West  Level FlightAware Approximate
02:04PM 33.0667 -124.5167 255° West 459 528 43,000  Level Oakland Oceanic (ODAPS)
02:05PM 32.9966 -124.8289 255° West  Level FlightAware Approximate
02:06PM 32.9649 -124.9684 255° West  Level FlightAware Approximate
02:07PM 32.9331 -125.1079 255° West  Level FlightAware Approximate
02:08PM 32.9014 -125.2466 255° West  Level FlightAware Approximate
02:09PM 32.8695 -125.3851 255° West  Level FlightAware Approximate
02:10PM 32.7994 -125.6871 254° West 459 528 43,000  Level FlightAware Transoceanic
02:11PM 32.7653 -125.8329 254° West 459 528 43,000  Level FlightAware Transoceanic
02:12PM 32.7309 -125.9786 254° West 459 528 43,000  Level FlightAware Transoceanic
02:13PM 32.6964 -126.1242 254° West 459 528 43,000  Level FlightAware Transoceanic
02:14PM 32.6618 -126.2696 254° West 459 528 43,000  Level FlightAware Transoceanic
02:15PM 32.6269 -126.4150 254° West 459 528 43,000  Level FlightAware Transoceanic
02:16PM 32.5919 -126.5602 254° West 459 528 43,000  Level FlightAware Transoceanic
02:17PM 32.5567 -126.7054 254° West 459 528 43,000  Level FlightAware Transoceanic
02:18PM 32.5214 -126.8504 254° West 459 528 43,000  Level FlightAware Transoceanic
02:19PM 32.4859 -126.9953 254° West 459 528 43,000  Level FlightAware Transoceanic
02:20PM 32.4502 -127.1401 254° West 459 528 43,000  Level FlightAware Transoceanic
02:21PM 32.4144 -127.2847 254° West 459 528 43,000  Level FlightAware Transoceanic
02:22PM 32.3784 -127.4293 254° West 459 528 43,000  Level FlightAware Transoceanic
02:23PM 32.3422 -127.5737 253° West 459 528 43,000  Level FlightAware Transoceanic
02:24PM 32.3059 -127.7180 253° West 459 528 43,000  Level FlightAware Transoceanic
02:25PM 32.2694 -127.8622 253° West 459 528 43,000  Level FlightAware Transoceanic
02:26PM 32.2327 -128.0063 253° West 459 528 43,000  Level FlightAware Transoceanic
02:27PM 32.1959 -128.1503 253° West 459 528 43,000  Level FlightAware Transoceanic
02:28PM 32.1589 -128.2941 253° West 459 528 43,000  Level FlightAware Transoceanic
02:29PM 32.1218 -128.4379 253° West 459 528 43,000  Level FlightAware Transoceanic
02:30PM 32.0844 -128.5815 253° West 459 528 43,000  Level FlightAware Transoceanic
02:31PM 32.0470 -128.7250 253° West 459 528 43,000  Level FlightAware Transoceanic
02:32PM 32.0093 -128.8684 253° West 459 528 43,000  Level FlightAware Transoceanic
02:33PM 31.9715 -129.0117 253° West 459 528 43,000  Level FlightAware Transoceanic
02:34PM 31.9336 -129.1548 253° West 459 528 43,000  Level FlightAware Transoceanic
02:35PM 31.8955 -129.2979 253° West 459 528 43,000  Level FlightAware Transoceanic
02:36PM 31.8572 -129.4408 252° West 459 528 43,000  Level FlightAware Transoceanic
02:37PM 31.8188 -129.5836 252° West 459 528 43,000  Level FlightAware Transoceanic
02:38PM 31.7802 -129.7263 252° West 459 528 43,000  Level FlightAware Transoceanic
02:39PM 31.7414 -129.8688 252° West 459 528 43,000  Level FlightAware Transoceanic
02:40PM 31.7025 -130.0112 252° West 459 528 43,000  Level FlightAware Transoceanic
02:41PM 31.6634 -130.1536 252° West 459 528 43,000  Level FlightAware Transoceanic
02:42PM 31.6242 -130.2958 252° West 459 528 43,000  Level FlightAware Transoceanic
02:43PM 31.5848 -130.4378 252° West 459 528 43,000  Level FlightAware Transoceanic
02:44PM 31.5452 -130.5798 252° West 459 528 43,000  Level FlightAware Transoceanic
02:45PM 31.5056 -130.7216 252° West 459 528 43,000  Level FlightAware Transoceanic
02:46PM 31.4657 -130.8634 252° West 459 528 43,000  Level FlightAware Transoceanic
02:47PM 31.4257 -131.0049 252° West 459 528 43,000  Level FlightAware Transoceanic
02:48PM 31.3855 -131.1464 252° West 459 528 43,000  Level FlightAware Transoceanic
02:49PM 31.3452 -131.2878 251° West 459 528 43,000  Level FlightAware Transoceanic
02:50PM 31.3047 -131.4290 251° West 459 528 43,000  Level FlightAware Transoceanic
02:51PM 31.2641 -131.5701 251° West 459 528 43,000  Level FlightAware Transoceanic
02:52PM 31.2233 -131.7111 251° West 459 528 43,000  Level FlightAware Transoceanic
02:53PM 31.1823 -131.8520 251° West 459 528 43,000  Level FlightAware Transoceanic
02:54PM 31.1413 -131.9927 251° West 459 528 43,000  Level FlightAware Transoceanic
02:55PM 31.1000 -132.1333 251° West 459 528 43,000  Level FlightAware Transoceanic
02:56PM 31.0614 -132.2644 251° West 459 528 43,000  Level FlightAware Transoceanic
02:57PM 31.0228 -132.3954 251° West 459 528 43,000  Level FlightAware Transoceanic
02:58PM 30.9839 -132.5263 251° West 459 528 43,000  Level FlightAware Transoceanic
02:59PM 30.9450 -132.6570 251° West 459 528 43,000  Level FlightAware Transoceanic
03:00PM 30.9059 -132.7877 251° West 459 528 43,000  Level FlightAware Transoceanic
03:01PM 30.8667 -132.9183 251° West 459 528 43,000  Level FlightAware Transoceanic
03:01PM 31.1000 -132.1333 251° West 443 510 43,000  Level Oakland Oceanic (ODAPS)
03:02PM 30.8273 -133.0487 251° West 459 528 43,000  Level FlightAware Transoceanic
03:03PM 30.7878 -133.1791 251° West 459 528 43,000  Level FlightAware Transoceanic
03:04PM 30.7482 -133.3093 250° West 459 528 43,000  Level FlightAware Transoceanic
03:05PM 30.7085 -133.4394 250° West 459 528 43,000  Level FlightAware Transoceanic
03:06PM 30.6686 -133.5694 250° West 459 528 43,000  Level FlightAware Transoceanic
03:07PM 30.6940 -133.4867 250° West 443 510 43,000  Level FlightAware Transoceanic
03:08PM 30.6527 -133.6214 250° West 443 510 43,000  Level FlightAware Transoceanic
03:09PM 30.6112 -133.7560 250° West 443 510 43,000  Level FlightAware Transoceanic
03:10PM 30.5695 -133.8905 250° West 443 510 43,000  Level FlightAware Transoceanic
03:11PM 30.5277 -134.0249 250° West 443 510 43,000  Level FlightAware Transoceanic
03:12PM 30.4858 -134.1591 250° West 443 510 43,000  Level FlightAware Transoceanic
03:13PM 30.4437 -134.2932 250° West 443 510 43,000  Level FlightAware Transoceanic
03:14PM 30.4015 -134.4272 250° West 443 510 43,000  Level FlightAware Transoceanic
03:15PM 30.3592 -134.5611 250° West 443 510 43,000  Level FlightAware Transoceanic
03:16PM 30.3167 -134.6949 250° West 443 510 43,000  Level FlightAware Transoceanic
03:17PM 30.2741 -134.8286 250° West 443 510 43,000  Level FlightAware Transoceanic
03:18PM 30.2314 -134.9621 250° West 443 510 43,000  Level FlightAware Transoceanic
03:19PM 30.1885 -135.0956 250° West 443 510 43,000  Level FlightAware Transoceanic
03:20PM 30.1455 -135.2289 250° West 443 510 43,000  Level FlightAware Transoceanic
03:21PM 30.1024 -135.3621 249° West 443 510 43,000  Level FlightAware Transoceanic
03:22PM 30.0591 -135.4952 249° West 443 510 43,000  Level FlightAware Transoceanic
03:23PM 30.0157 -135.6281 249° West 443 510 43,000  Level FlightAware Transoceanic
03:24PM 29.9721 -135.7610 249° West 443 510 43,000  Level FlightAware Transoceanic
03:25PM 29.9284 -135.8937 249° West 443 510 43,000  Level FlightAware Transoceanic
03:26PM 29.8846 -136.0263 249° West 443 510 43,000  Level FlightAware Transoceanic
03:27PM 29.8407 -136.1588 249° West 443 510 43,000  Level FlightAware Transoceanic
03:28PM 29.7966 -136.2912 249° West 443 510 43,000  Level FlightAware Transoceanic
03:29PM 29.7524 -136.4235 249° West 443 510 43,000  Level FlightAware Transoceanic
03:30PM 29.7080 -136.5556 249° West 443 510 43,000  Level FlightAware Transoceanic
03:31PM 29.6636 -136.6877 249° West 443 510 43,000  Level FlightAware Transoceanic
03:32PM 29.6190 -136.8196 249° West 443 510 43,000  Level FlightAware Transoceanic
03:33PM 29.5742 -136.9514 249° West 443 510 43,000  Level FlightAware Transoceanic
03:34PM 29.5294 -137.0831 249° West 443 510 43,000  Level FlightAware Transoceanic
03:35PM 29.4844 -137.2146 249° West 443 510 43,000  Level FlightAware Transoceanic
03:36PM 29.4393 -137.3461 248° West 443 510 43,000  Level FlightAware Transoceanic
03:37PM 29.3940 -137.4774 248° West 443 510 43,000  Level FlightAware Transoceanic
03:38PM 29.3486 -137.6086 248° West 443 510 43,000  Level FlightAware Transoceanic
03:39PM 29.3031 -137.7397 248° West 443 510 43,000  Level FlightAware Transoceanic
03:40PM 29.2575 -137.8707 248° West 443 510 43,000  Level FlightAware Transoceanic
03:41PM 29.2117 -138.0016 248° West 443 510 43,000  Level FlightAware Transoceanic
03:42PM 29.1658 -138.1323 248° West 443 510 43,000  Level FlightAware Transoceanic
03:43PM 29.1198 -138.2629 248° West 443 510 43,000  Level FlightAware Transoceanic
03:44PM 29.0737 -138.3934 248° West 443 510 43,000  Level FlightAware Transoceanic
03:45PM 29.0274 -138.5238 248° West 443 510 43,000  Level FlightAware Transoceanic
03:46PM 28.9810 -138.6541 248° West 443 510 43,000  Level FlightAware Transoceanic
03:47PM 28.9345 -138.7843 248° West 443 510 43,000  Level FlightAware Transoceanic
03:48PM 28.8878 -138.9143 248° West 443 510 43,000  Level FlightAware Transoceanic
03:49PM 28.8411 -139.0443 248° West 443 510 43,000  Level FlightAware Transoceanic
03:50PM 28.7942 -139.1741 248° West 443 510 43,000  Level FlightAware Transoceanic
03:51PM 28.7471 -139.3038 247° West 443 510 43,000  Level FlightAware Transoceanic
03:52PM 28.7000 -139.4333 247° West 443 510 43,000  Level FlightAware Transoceanic
03:53PM 28.6547 -139.5565 247° West 443 510 43,000  Level FlightAware Transoceanic
03:54PM 28.6093 -139.6795 247° West 443 510 43,000  Level FlightAware Transoceanic
03:55PM 28.5637 -139.8024 247° West 443 510 43,000  Level FlightAware Transoceanic
03:56PM 28.5181 -139.9252 247° West 443 510 43,000  Level FlightAware Transoceanic
03:57PM 28.4724 -140.0480 247° West 443 510 43,000  Level FlightAware Transoceanic
03:58PM 28.4265 -140.1706 247° West 443 510 43,000  Level FlightAware Transoceanic
03:59PM 28.3805 -140.2931 247° West 443 510 43,000  Level FlightAware Transoceanic
04:00PM 28.3345 -140.4155 247° West 443 510 43,000  Level FlightAware Transoceanic
04:01PM 28.2883 -140.5377 247° West 443 510 43,000  Level FlightAware Transoceanic
04:01PM 28.7000 -139.4333 247° West 415 478 43,000  Level Oakland Oceanic (ODAPS)
04:02PM 28.2420 -140.6599 247° West 443 510 43,000  Level FlightAware Transoceanic
04:03PM 28.1956 -140.7820 247° West 443 510 43,000  Level FlightAware Transoceanic
04:04PM 28.1491 -140.9040 247° West 443 510 43,000  Level FlightAware Transoceanic
04:05PM 28.1024 -141.0258 247° West 443 510 43,000  Level FlightAware Transoceanic
04:06PM 28.0557 -141.1476 246° West 443 510 43,000  Level FlightAware Transoceanic
04:07PM 28.1131 -140.9980 247° West 415 478 43,000  Level FlightAware Transoceanic
04:08PM 28.0672 -141.1177 246° West 415 478 43,000  Level FlightAware Transoceanic
04:09PM 28.0212 -141.2372 246° West 415 478 43,000  Level FlightAware Transoceanic
04:10PM 27.9751 -141.3567 246° West 415 478 43,000  Level FlightAware Transoceanic
04:11PM 27.9289 -141.4760 246° West 415 478 43,000  Level FlightAware Transoceanic
04:12PM 27.8826 -141.5952 246° West 415 478 43,000  Level FlightAware Transoceanic
04:13PM 27.8362 -141.7144 246° West 415 478 43,000  Level FlightAware Transoceanic
04:14PM 27.7897 -141.8334 246° West 415 478 43,000  Level FlightAware Transoceanic
04:15PM 27.7431 -141.9523 246° West 415 478 43,000  Level FlightAware Transoceanic
04:16PM 27.6964 -142.0712 246° West 415 478 43,000  Level FlightAware Transoceanic
04:17PM 27.6496 -142.1899 246° West 415 478 43,000  Level FlightAware Transoceanic
04:18PM 27.6027 -142.3085 246° West 415 478 43,000  Level FlightAware Transoceanic
04:19PM 27.5557 -142.4270 246° West 415 478 43,000  Level FlightAware Transoceanic
04:20PM 27.5086 -142.5455 246° West 415 478 43,000  Level FlightAware Transoceanic
04:21PM 27.4614 -142.6638 246° West 415 478 43,000  Level FlightAware Transoceanic
04:22PM 27.4141 -142.7820 246° West 415 478 43,000  Level FlightAware Transoceanic
04:23PM 27.3667 -142.9001 246° West 415 478 43,000  Level FlightAware Transoceanic
04:24PM 27.3192 -143.0181 246° West 415 478 43,000  Level FlightAware Transoceanic
04:25PM 27.2716 -143.1361 246° West 415 478 43,000  Level FlightAware Transoceanic
04:26PM 27.2239 -143.2539 245° Southwest 415 478 43,000  Level FlightAware Transoceanic
04:27PM 27.1761 -143.3716 245° Southwest 415 478 43,000  Level FlightAware Transoceanic
04:28PM 27.1282 -143.4892 245° Southwest 415 478 43,000  Level FlightAware Transoceanic
04:29PM 27.0802 -143.6067 245° Southwest 415 478 43,000  Level FlightAware Transoceanic
04:30PM 27.0321 -143.7241 245° Southwest 415 478 43,000  Level FlightAware Transoceanic
04:31PM 26.9839 -143.8414 245° Southwest 415 478 43,000  Level FlightAware Transoceanic
04:32PM 26.9356 -143.9586 245° Southwest 415 478 43,000  Level FlightAware Transoceanic
04:33PM 26.8872 -144.0758 245° Southwest 415 478 43,000  Level FlightAware Transoceanic
04:34PM 26.8387 -144.1928 245° Southwest 415 478 43,000  Level FlightAware Transoceanic
04:35PM 26.7901 -144.3097 245° Southwest 415 478 43,000  Level FlightAware Transoceanic
04:36PM 26.7415 -144.4265 245° Southwest 415 478 43,000  Level FlightAware Transoceanic
04:37PM 26.6927 -144.5432 245° Southwest 415 478 43,000  Level FlightAware Transoceanic
04:38PM 26.6438 -144.6598 245° Southwest 415 478 43,000  Level FlightAware Transoceanic
04:39PM 26.5949 -144.7763 245° Southwest 415 478 43,000  Level FlightAware Transoceanic
04:40PM 26.5458 -144.8927 245° Southwest 415 478 43,000  Level FlightAware Transoceanic
04:41PM 26.4967 -145.0090 245° Southwest 415 478 43,000  Level FlightAware Transoceanic
04:42PM 26.4474 -145.1252 245° Southwest 415 478 43,000  Level FlightAware Transoceanic
04:43PM 26.3981 -145.2413 245° Southwest 415 478 43,000  Level FlightAware Transoceanic
04:44PM 26.3486 -145.3574 245° Southwest 415 478 43,000  Level FlightAware Transoceanic
04:45PM 26.2991 -145.4733 244° Southwest 415 478 43,000  Level FlightAware Transoceanic
04:46PM 26.2495 -145.5891 244° Southwest 415 478 43,000  Level FlightAware Transoceanic
04:47PM 26.1998 -145.7048 244° Southwest 415 478 43,000  Level FlightAware Transoceanic
04:48PM 26.1500 -145.8204 244° Southwest 415 478 43,000  Level FlightAware Transoceanic
04:49PM 26.1001 -145.9359 244° Southwest 415 478 43,000  Level FlightAware Transoceanic
04:50PM 26.0501 -146.0513 244° Southwest 415 478 43,000  Level FlightAware Transoceanic
04:51PM 26.0000 -146.1667 244° Southwest 415 478 43,000  Level FlightAware Transoceanic
04:52PM 25.9473 -146.2883 244° Southwest 415 478 43,000  Level FlightAware Transoceanic
04:53PM 25.8945 -146.4098 244° Southwest 415 478 43,000  Level FlightAware Transoceanic
04:54PM 25.8416 -146.5313 244° Southwest 415 478 43,000  Level FlightAware Transoceanic
04:55PM 25.7886 -146.6526 244° Southwest 415 478 43,000  Level FlightAware Transoceanic
04:55PM 26.0000 -146.1667 244° Southwest 428 493 43,000  Level Oakland Oceanic (ODAPS)
04:56PM 25.7355 -146.7738 244° Southwest 415 478 43,000  Level FlightAware Transoceanic
04:57PM 25.6822 -146.8949 244° Southwest 415 478 43,000  Level FlightAware Transoceanic
04:58PM 25.6289 -147.0159 244° Southwest 415 478 43,000  Level FlightAware Transoceanic
04:59PM 25.5755 -147.1367 244° Southwest 415 478 43,000  Level FlightAware Transoceanic
05:00PM 25.5220 -147.2575 244° Southwest 415 478 43,000  Level FlightAware Transoceanic
05:01PM 25.4782 -147.3562 244° Southwest 428 493 43,000  Level FlightAware Transoceanic
05:02PM 25.4255 -147.4746 244° Southwest 428 493 43,000  Level FlightAware Transoceanic
05:03PM 25.3727 -147.5929 244° Southwest 428 493 43,000  Level FlightAware Transoceanic
05:04PM 25.3197 -147.7111 244° Southwest 428 493 43,000  Level FlightAware Transoceanic
05:05PM 25.2668 -147.8292 244° Southwest 428 493 43,000  Level FlightAware Transoceanic
05:06PM 25.2137 -147.9471 244° Southwest 428 493 43,000  Level FlightAware Transoceanic
05:07PM 25.1605 -148.0650 243° Southwest 428 493 43,000  Level FlightAware Transoceanic
05:08PM 25.1072 -148.1828 243° Southwest 428 493 43,000  Level FlightAware Transoceanic
05:09PM 25.0538 -148.3004 243° Southwest 428 493 43,000  Level FlightAware Transoceanic
05:10PM 25.0004 -148.4180 243° Southwest 428 493 43,000  Level FlightAware Transoceanic
05:11PM 24.9468 -148.5354 243° Southwest 428 493 43,000  Level FlightAware Transoceanic
05:12PM 24.8932 -148.6528 243° Southwest 428 493 43,000  Level FlightAware Transoceanic
05:13PM 24.8395 -148.7701 243° Southwest 428 493 43,000  Level FlightAware Transoceanic
05:14PM 24.7856 -148.8872 243° Southwest 428 493 43,000  Level FlightAware Transoceanic
05:15PM 24.7317 -149.0043 243° Southwest 428 493 43,000  Level FlightAware Transoceanic
05:16PM 24.6777 -149.1212 243° Southwest 428 493 43,000  Level FlightAware Transoceanic
05:17PM 24.6236 -149.2381 243° Southwest 428 493 43,000  Level FlightAware Transoceanic
05:18PM 24.5694 -149.3548 243° Southwest 428 493 43,000  Level FlightAware Transoceanic
05:19PM 24.5151 -149.4714 243° Southwest 428 493 43,000  Level FlightAware Transoceanic
05:20PM 24.4608 -149.5880 243° Southwest 428 493 43,000  Level FlightAware Transoceanic
05:21PM 24.4063 -149.7044 243° Southwest 428 493 43,000  Level FlightAware Transoceanic
05:22PM 24.3517 -149.8208 243° Southwest 428 493 43,000  Level FlightAware Transoceanic
05:23PM 24.2971 -149.9370 243° Southwest 428 493 43,000  Level FlightAware Transoceanic
05:24PM 24.2424 -150.0531 243° Southwest 428 493 43,000  Level FlightAware Transoceanic
05:25PM 24.1876 -150.1692 243° Southwest 428 493 43,000  Level FlightAware Transoceanic
05:26PM 24.1327 -150.2851 243° Southwest 428 493 43,000  Level FlightAware Transoceanic
05:27PM 24.0777 -150.4010 243° Southwest 428 493 43,000  Level FlightAware Transoceanic
05:28PM 24.0226 -150.5167 242° Southwest 428 493 43,000  Level FlightAware Transoceanic
05:29PM 23.9674 -150.6324 242° Southwest 428 493 43,000  Level FlightAware Transoceanic
05:30PM 23.9122 -150.7479 242° Southwest 428 493 43,000  Level FlightAware Transoceanic
05:31PM 23.8568 -150.8634 242° Southwest 428 493 43,000  Level FlightAware Transoceanic
05:32PM 23.8014 -150.9787 242° Southwest 428 493 43,000  Level FlightAware Transoceanic
05:33PM 23.7459 -151.0940 242° Southwest 428 493 43,000  Level FlightAware Transoceanic
05:34PM 23.6903 -151.2091 242° Southwest 428 493 43,000  Level FlightAware Transoceanic
05:35PM 23.6346 -151.3242 242° Southwest 428 493 43,000  Level FlightAware Transoceanic
05:36PM 23.5789 -151.4391 242° Southwest 428 493 43,000  Level FlightAware Transoceanic
05:37PM 23.5230 -151.5540 242° Southwest 428 493 43,000  Level FlightAware Transoceanic
05:38PM 23.4671 -151.6687 242° Southwest 428 493 43,000  Level FlightAware Transoceanic
05:39PM 23.4111 -151.7834 242° Southwest 428 493 43,000  Level FlightAware Transoceanic
05:40PM 23.3550 -151.8980 242° Southwest 428 493 43,000  Level FlightAware Transoceanic
05:41PM 23.2988 -152.0124 242° Southwest 428 493 43,000  Level FlightAware Transoceanic
05:42PM 23.2425 -152.1268 242° Southwest 428 493 43,000  Level FlightAware Transoceanic
05:43PM 23.1862 -152.2411 242° Southwest 428 493 43,000  Level FlightAware Transoceanic
05:44PM 23.1298 -152.3553 242° Southwest 428 493 43,000  Level FlightAware Transoceanic
05:45PM 23.0733 -152.4693 242° Southwest 428 493 43,000  Level FlightAware Transoceanic
05:46PM 23.0167 -152.5833 242° Southwest 428 493 43,000  Level FlightAware Transoceanic
05:47PM 22.9580 -152.7020 242° Southwest 428 493 43,000  Level FlightAware Transoceanic
05:48PM 22.8993 -152.8206 242° Southwest 428 493 43,000  Level FlightAware Transoceanic
05:49PM 22.8404 -152.9391 242° Southwest 428 493 43,000  Level FlightAware Transoceanic
05:49PM 22.9500 -152.7333 241° Southwest 440 506 43,000  Level Honolulu Center
05:50PM 22.7815 -153.0575 242° Southwest 428 493 43,000  Level FlightAware Transoceanic
05:50PM 22.9000 -152.8167 237° Southwest 430 495 43,000  Level Honolulu Center
05:51PM 22.7225 -153.1758 242° Southwest 428 493 43,000  Level FlightAware Transoceanic
05:51PM 22.8333 -152.9667 244° Southwest 420 483 43,000  Level Honolulu Center
05:52PM 22.6634 -153.2939 242° Southwest 428 493 43,000  Level FlightAware Transoceanic
05:53PM 22.6042 -153.4120 241° Southwest 428 493 43,000  Level FlightAware Transoceanic
05:53PM 22.8000 -153.2167 262° West 440 506 43,000  Level Honolulu Center
05:54PM 22.5450 -153.5300 241° Southwest 428 493 43,000  Level FlightAware Transoceanic
05:54PM 22.7833 -153.3500 262° West 440 506 43,000  Level Honolulu Center
05:55PM 22.7667 -153.4833 262° West 440 506 43,000  Level Honolulu Center
05:56PM 22.7500 -153.6167 262° West 440 506 43,000  Level Honolulu Center
05:57PM 22.7167 -153.7500 255° West 440 506 43,000  Level Honolulu Center
05:58PM 22.7000 -153.8833 262° West 440 506 43,000  Level Honolulu Center
05:59PM 22.6833 -154.0000 261° West 440 506 43,000  Level Honolulu Center
06:00PM 22.6667 -154.1333 262° West 450 518 43,000  Level Honolulu Center
06:01PM 22.6333 -154.2667 255° West 440 506 43,000  Level Honolulu Center
06:02PM 22.6167 -154.4000 262° West 440 506 43,000  Level Honolulu Center
06:03PM 22.6000 -154.5333 262° West 440 506 43,000  Level Honolulu Center
06:04PM 22.5667 -154.6667 255° West 440 506 43,000  Level Honolulu Center
06:05PM 22.5500 -154.8000 262° West 440 506 43,000  Level Honolulu Center
06:06PM 22.5167 -154.9333 255° West 440 506 43,000  Level Honolulu Center
06:07PM 22.5000 -155.0500 261° West 450 518 43,000  Level Honolulu Center
06:08PM 22.4833 -155.1833 262° West 440 506 43,000  Level Honolulu Center
06:09PM 22.4500 -155.3167 255° West 450 518 43,000  Level Honolulu Center
06:10PM 22.4333 -155.4500 262° West 440 506 43,000  Level Honolulu Center
06:11PM 22.4167 -155.5833 262° West 450 518 43,000  Level Honolulu Center
06:12PM 22.3833 -155.7167 255° West 450 518 43,000  Level Honolulu Center
06:13PM 22.3667 -155.8500 262° West 440 506 43,000  Level Honolulu Center
06:14PM 22.3333 -155.9833 255° West 450 518 43,000  Level Honolulu Center
06:15PM 22.3167 -156.1167 262° West 440 506 43,000  Level Honolulu Center
06:16PM 22.3000 -156.2333 261° West 450 518 43,000  Level Honolulu Center
06:17PM 22.2667 -156.3667 255° West 450 518 43,000  Level Honolulu Center
06:18PM 22.2500 -156.5000 262° West 450 518 43,000  Level Honolulu Center
06:19PM 22.2167 -156.6667 258° West 450 518 43,000  Level Honolulu Center
06:20PM 22.2000 -156.7667 260° West 450 518 43,000  Level Honolulu Center
06:21PM 22.1667 -156.9000 255° West 450 518 43,000  Level Honolulu Center
06:22PM 22.1500 -157.0333 262° West 450 518 43,000 -600 Level Honolulu Center
06:23PM 22.1167 -157.1667 255° West 450 518 41,900 -1,740 Descending Honolulu Center
06:24PM 22.1000 -157.3333 264° West 450 518 39,500 -2,520 Descending Honolulu Center
06:25PM 22.0667 -157.4667 255° West 450 518 36,900 -2,220 Descending Honolulu Center
06:26PM 22.0500 -157.6000 262° West 460 529 35,100 -1,440 Descending Honolulu Center
06:27PM 22.0167 -157.7333 255° West 480 552 34,100 -1,800 Descending Honolulu Center
06:28PM 22.0000 -157.8667 262° West 490 564 31,500 -2,640 Descending Honolulu Center
06:29PM 21.9667 -158.0167 257° West 480 552 28,800 -2,700 Descending Honolulu Center
06:30PM 21.9333 -158.1500 255° West 480 552 26,100 -2,700 Descending Honolulu Center
06:31PM 21.9167 -158.3000 263° West 470 541 23,400 -2,640 Descending Honolulu Center
06:32PM 21.8833 -158.4333 255° West 450 518 20,800 -2,700 Descending Honolulu Center
06:33PM 21.8667 -158.5500 261° West 440 506 18,100 -2,940 Descending Honolulu Center
06:34PM 21.8333 -158.6667 253° West 410 472 14,900 -2,580 Descending Honolulu Center
06:35PM 21.8167 -158.7833 261° West 370 426 13,000 -1,920 Descending Honolulu Center
06:36PM 21.8000 -158.8833 260° West 340 391 11,100 -1,920 Descending Honolulu Center
06:37PM 21.7833 -158.9833 260° West 310 357 9,200 -1,860 Descending Honolulu Center
06:38PM 21.7667 -159.0667 258° West 290 334 7,400 -1,800 Descending Honolulu Center
06:39PM 21.7500 -159.1500 258° West 280 322 5,600 -1,800 Descending Honolulu Center
06:40PM 21.7333 -159.2333 258° West 270 311 3,800 -1,320 Descending Honolulu Center
06:41PM 21.7667 -159.3000 298° West 250 288 3,000 -540 Descending Honolulu Center
06:42PM 21.8167 -159.3333 328° Northwest 210 242 2,800 -600 Descending Honolulu Center
06:43PM 21.8667 -159.3333 360° North 160 184 1,900 -840 Descending Honolulu Center
06:44PM 21.9000 -159.3333 360° North 130 150 1,200 -660 Descending Honolulu Center
06:45PM 21.9333 -159.3333 360° North 120 138 600 -600 Descending Honolulu Center